PROFILE

 METAR AND TAF INFORMATION
METAR FOR CYHM
ADDS - METARS form results

(2254 UTC 23 April 2018)
Data provider http://aviationweather.gov/adds/metars/
 
METAR text: CYHM 232200Z 04015KT 15SM BKN250 13/M01 A3022 RMK CI7 SLP240
Conditions at: CYHM (HAMILTON AIRPORT, ON, CA) observed 2200 UTC 23 April 2018
Temperature: 13.0°C (55°F)
Dewpoint: -1.0°C (30°F) [RH = 38%]
Pressure (altimeter): 30.22 inches Hg (1023.5 mb)
[Sea-level pressure: 1024.0 mb]
Winds: from the NE (40 degrees) at 17 MPH (15 knots; 7.8 m/s)
Visibility: 15 miles (24 km)
Ceiling: 25000 feet AGL
Clouds: broken clouds at 25000 feet AGL
Weather: no significant weather observed at this time

Forecast for: CYHM (HAMILTON AIRPORT, ON, CA)
Text: TAF AMD CYHM 231911Z 2319/2418 05015KT P6SM FEW250
Forecast period: 1900 to 2000 UTC 23 April 2018
Forecast type: FROM: standard forecast or significant change
Winds: from the NE (50 degrees) at 17 MPH (15 knots; 7.8 m/s)
Visibility: 6 or more miles (10+ km)
Clouds: few clouds at 25000 feet AGL
Weather: no significant weather forecast for this period
Forecast for: CYHM (HAMILTON AIRPORT, ON, CA)
Text: TAF AMD CYHM 231911Z 2319/2418 05015KT P6SM FEW250
Forecast period: 1900 to 2000 UTC 23 April 2018
Forecast type: FROM: standard forecast or significant change
Winds: from the NE (50 degrees) at 17 MPH (15 knots; 7.8 m/s)
Visibility: 6 or more miles (10+ km)
Clouds: few clouds at 25000 feet AGL
Weather: no significant weather forecast for this period
Forecast for: CYHM (HAMILTON AIRPORT, ON, CA)
Text: TAF AMD CYHM 231911Z 2319/2418 05015KT P6SM FEW250
Forecast period: 2000 UTC 23 April 2018 to 0300 UTC 24 April 2018
Forecast type: BECOMING: Conditions expected to become as follows by 2200 UTC 23 April 2018
Winds: from the NE (50 degrees) at 12 MPH (10 knots; 5.2 m/s)
Visibility: 6 or more miles (10+ km)
Clouds: few clouds at 25000 feet AGL
Weather: no significant weather forecast for this period
Forecast for: CYHM (HAMILTON AIRPORT, ON, CA)
Text: TAF AMD CYHM 231911Z 2319/2418 05015KT P6SM FEW250
Forecast period: 2000 UTC 23 April 2018 to 0300 UTC 24 April 2018
Forecast type: BECOMING: Conditions expected to become as follows by 2200 UTC 23 April 2018
Winds: from the NE (50 degrees) at 12 MPH (10 knots; 5.2 m/s)
Visibility: 6 or more miles (10+ km)
Clouds: few clouds at 25000 feet AGL
Weather: no significant weather forecast for this period
Forecast for: CYHM (HAMILTON AIRPORT, ON, CA)
Text: TAF AMD CYHM 231911Z 2319/2418 05015KT P6SM FEW250
Forecast period: 0300 to 0800 UTC 24 April 2018
Forecast type: FROM: standard forecast or significant change
Winds: variable direction winds at 3 MPH (3 knots; 1.6 m/s)
Visibility: 6 or more miles (10+ km)
Ceiling: 25000 feet AGL
Clouds: broken clouds at 25000 feet AGL
Weather: no significant weather forecast for this period
Forecast for: CYHM (HAMILTON AIRPORT, ON, CA)
Text: TAF AMD CYHM 231911Z 2319/2418 05015KT P6SM FEW250
Forecast period: 0300 to 0800 UTC 24 April 2018
Forecast type: FROM: standard forecast or significant change
Winds: variable direction winds at 3 MPH (3 knots; 1.6 m/s)
Visibility: 6 or more miles (10+ km)
Ceiling: 25000 feet AGL
Clouds: broken clouds at 25000 feet AGL
Weather: no significant weather forecast for this period
Forecast for: CYHM (HAMILTON AIRPORT, ON, CA)
Text: TAF AMD CYHM 231911Z 2319/2418 05015KT P6SM FEW250
Forecast period: 0800 to 1100 UTC 24 April 2018
Forecast type: FROM: standard forecast or significant change
Winds: from the SSE (150 degrees) at 9 MPH (8 knots; 4.2 m/s)
Visibility: 6 or more miles (10+ km)
Ceiling: 16000 feet AGL
Clouds: few clouds at 6000 feet AGL
broken clouds at 16000 feet AGL
Weather: no significant weather forecast for this period
Forecast for: CYHM (HAMILTON AIRPORT, ON, CA)
Text: TAF AMD CYHM 231911Z 2319/2418 05015KT P6SM FEW250
Forecast period: 0800 to 1100 UTC 24 April 2018
Forecast type: FROM: standard forecast or significant change
Winds: from the SSE (150 degrees) at 9 MPH (8 knots; 4.2 m/s)
Visibility: 6 or more miles (10+ km)
Ceiling: 16000 feet AGL
Clouds: few clouds at 6000 feet AGL
broken clouds at 16000 feet AGL
Weather: no significant weather forecast for this period
Forecast for: CYHM (HAMILTON AIRPORT, ON, CA)
Text: TAF AMD CYHM 231911Z 2319/2418 05015KT P6SM FEW250
Forecast period: 1100 to 1600 UTC 24 April 2018
Forecast type: FROM: standard forecast or significant change
Winds: from the S (180 degrees) at 9 MPH (8 knots; 4.2 m/s)
Visibility: 6 or more miles (10+ km)
Ceiling: 6000 feet AGL
Clouds: overcast cloud deck at 6000 feet AGL
Weather: no significant weather forecast for this period
Forecast for: CYHM (HAMILTON AIRPORT, ON, CA)
Text: TAF AMD CYHM 231911Z 2319/2418 05015KT P6SM FEW250
Forecast period: 1100 to 1600 UTC 24 April 2018
Forecast type: FROM: standard forecast or significant change
Winds: from the S (180 degrees) at 9 MPH (8 knots; 4.2 m/s)
Visibility: 6 or more miles (10+ km)
Ceiling: 6000 feet AGL
Clouds: overcast cloud deck at 6000 feet AGL
Weather: no significant weather forecast for this period
Forecast for: CYHM (HAMILTON AIRPORT, ON, CA)
Text: TAF AMD CYHM 231911Z 2319/2418 05015KT P6SM FEW250
Forecast period: 1600 to 1800 UTC 24 April 2018
Forecast type: FROM: standard forecast or significant change
Winds: from the SSE (160 degrees) at 12 MPH (10 knots; 5.2 m/s)
Visibility: 6 or more miles (10+ km)
Ceiling: 5000 feet AGL
Clouds: broken clouds at 5000 feet AGL
overcast cloud deck at 10000 feet AGL
Weather: no significant weather forecast for this period
Forecast for: CYHM (HAMILTON AIRPORT, ON, CA)
Text: TAF AMD CYHM 231911Z 2319/2418 05015KT P6SM FEW250
Forecast period: 1600 to 1800 UTC 24 April 2018
Forecast type: FROM: standard forecast or significant change
Winds: from the SSE (160 degrees) at 12 MPH (10 knots; 5.2 m/s)
Visibility: 6 or more miles (10+ km)
Ceiling: 5000 feet AGL
Clouds: broken clouds at 5000 feet AGL
overcast cloud deck at 10000 feet AGL
Weather: no significant weather forecast for this period

 AIRPORT MAP

 RUNWAY INFORMATION
Runway 06 Runway length 6000 ft Runway width 150 ft
Runway elevation 771 ft Runway displaced threshold 0 ft Runway heading 49
Runway 24 Runway length 6000 ft Runway width 150 ft
Runway elevation 755 ft Runway displaced threshold 0 ft Runway heading 229
Runway 12 Runway length 10000 ft Runway width 200 ft
Runway elevation 776 ft Runway displaced threshold 1600 ft Runway heading 108
Runway 30 Runway length 10000 ft Runway width 200 ft
Runway elevation 767 ft Runway displaced threshold 400 ft Runway heading 288

 AIRPORT FREQUENCIES
Type A/D Name TORONTO TR Frequency 119.7 MHZ
Type ATIS Name ATIS Frequency 128.1 MHZ
Type GND Name GND Frequency 121.6 MHZ
Type TWR Name TWR Frequency 125 MHZ

 AIRPORT NEAR NAVIGATION AIDS
Type NDB Name Hamilton Frequency 221 KHZ
Type NDB Name Ancaster Frequency 397 KHZ
Type NDB Name Binbrook Frequency 266 KHZ